Time;durP1;ratioP1;P1;durP2;ratioP2;P2;SDS_P1;SDS_P2;PMS_P1;PMS_P2;Temp;Humidity;BMP_temperature;BMP_pressure;BME280_temperature;BME280_humidity;BME280_pressure;Samples;Min_cycle;Max_cycle;Signal;HPM_P1;HPM_P2
2021/04/07 07:49:37;;;;;;;6.63;3.17;;;;;;;5.69;59.88;101335.97;5285584;23;98984;-71
2021/04/07 07:52:04;;;;;;;10.07;3.40;;;;;;;5.81;60.14;101343.66;4918461;28;118203;-69
2021/04/07 07:54:30;;;;;;;9.63;3.38;;;;;;;5.91;59.93;101342.59;4910882;28;118756;-70
2021/04/07 07:56:57;;;;;;;11.73;3.63;;;;;;;6.03;59.97;101342.44;4912323;28;123999;-69
2021/04/07 07:59:31;;;;;;;12.40;3.80;;;;;;;6.13;60.14;101347.53;4931779;28;123856;-70
2021/04/07 08:01:58;;;;;;;10.98;3.67;;;;;;;6.20;60.21;101349.16;4928778;28;121349;-70
2021/04/07 08:04:26;;;;;;;11.50;3.38;;;;;;;6.27;59.99;101361.25;4931786;28;118981;-70
2021/04/07 08:06:52;;;;;;;12.90;4.10;;;;;;;6.32;59.83;101356.78;4933067;28;124517;-70
2021/04/07 08:09:19;;;;;;;13.95;4.50;;;;;;;6.37;60.06;101368.09;4932325;28;124004;-70
2021/04/07 08:11:47;;;;;;;13.85;3.92;;;;;;;6.43;59.88;101362.72;4917482;28;119540;-70
2021/04/07 08:14:16;;;;;;;16.58;4.53;;;;;;;6.48;59.85;101367.00;4891679;28;118211;-71
2021/04/07 08:16:44;;;;;;;12.55;3.90;;;;;;;6.53;60.03;101378.31;4928857;28;125038;-70
2021/04/07 08:19:12;;;;;;;14.23;4.10;;;;;;;6.58;59.67;101379.09;4932152;28;124052;-69
2021/04/07 08:21:39;;;;;;;10.23;3.63;;;;;;;6.61;60.03;101386.91;4911181;28;119208;-70
2021/04/07 08:24:09;;;;;;;13.43;4.13;;;;;;;6.63;59.89;101390.41;4913062;28;118356;-69
2021/04/07 08:26:38;;;;;;;13.93;4.22;;;;;;;6.68;60.04;101388.53;4912266;28;124271;-69
2021/04/07 08:29:05;;;;;;;16.42;4.80;;;;;;;6.70;60.02;101397.28;4920248;28;124245;-69
2021/04/07 08:31:34;;;;;;;12.23;3.50;;;;;;;6.76;59.90;101406.81;4907789;28;120093;-69
2021/04/07 08:34:06;;;;;;;14.32;3.13;;;;;;;6.81;60.19;101408.44;4909682;28;118945;-69
2021/04/07 08:36:33;;;;;;;14.63;3.60;;;;;;;6.85;59.94;101408.41;4910352;28;124964;-69
2021/04/07 08:39:11;;;;;;;18.27;3.70;;;;;;;6.88;60.33;101426.78;4929342;28;123659;-69
2021/04/07 08:41:39;;;;;;;20.85;3.90;;;;;;;6.90;60.00;101430.25;4896051;28;119357;-69
2021/04/07 08:44:06;;;;;;;12.25;3.42;;;;;;;6.94;60.21;101442.44;4915281;28;117859;-69
2021/04/07 08:46:40;;;;;;;19.52;3.80;;;;;;;6.99;60.11;101451.13;4932172;28;124423;-70
2021/04/07 08:49:07;;;;;;;14.45;3.30;;;;;;;6.99;60.09;101435.31;4929694;28;124282;-69
2021/04/07 08:51:35;;;;;;;14.35;3.17;;;;;;;7.01;60.31;101438.78;4937635;28;119465;-70
2021/04/07 08:54:01;;;;;;;17.23;4.18;;;;;;;7.06;60.32;101447.44;4910904;28;118814;-70
2021/04/07 08:56:32;;;;;;;14.70;2.80;;;;;;;7.11;60.51;101442.97;4910996;28;122920;-69
2021/04/07 08:59:01;;;;;;;19.13;3.10;;;;;;;7.16;60.25;101446.38;4929540;28;123817;-70
2021/04/07 09:01:30;;;;;;;14.88;2.83;;;;;;;7.20;60.33;101455.94;4930186;28;119008;-70
2021/04/07 09:04:07;;;;;;;15.25;3.05;;;;;;;7.27;60.71;101450.53;4933538;28;119862;-70
2021/04/07 09:06:38;;;;;;;16.95;3.03;;;;;;;7.33;60.47;101455.69;4932488;28;124019;-70
2021/04/07 09:09:06;;;;;;;16.92;3.35;;;;;;;7.39;60.33;101460.81;4899825;28;123112;-70
2021/04/07 09:11:35;;;;;;;18.77;3.47;;;;;;;7.45;60.65;101462.44;4930089;28;120174;-70
2021/04/07 09:14:04;;;;;;;26.40;3.30;;;;;;;7.51;60.63;101470.22;4929978;28;119634;-70
2021/04/07 09:16:39;;;;;;;18.00;3.67;;;;;;;7.60;60.79;101470.88;4906384;28;123466;-70
2021/04/07 09:19:27;;;;;;;23.05;3.75;;;;;;;7.71;60.95;101469.78;4909168;28;123259;-70
2021/04/07 09:21:59;;;;;;;20.02;3.90;;;;;;;7.83;60.99;101472.09;4923914;28;121056;-70
2021/04/07 09:24:34;;;;;;;26.50;4.68;;;;;;;7.94;61.00;101475.38;4911332;28;119160;-70
2021/04/07 09:27:01;;;;;;;24.43;4.40;;;;;;;8.06;60.90;101473.31;4930310;28;124090;-70
2021/04/07 09:29:28;;;;;;;16.45;3.88;;;;;;;8.16;60.81;101474.84;4928085;28;97360;-70
2021/04/07 09:31:55;;;;;;;25.25;4.03;;;;;;;8.24;60.51;101472.88;4928374;28;119674;-70
2021/04/07 09:34:22;;;;;;;25.13;4.05;;;;;;;8.33;60.56;101477.94;4926865;28;119452;-71
2021/04/07 09:36:50;;;;;;;23.73;4.63;;;;;;;8.43;60.51;101477.72;4896054;28;123407;-70
2021/04/07 09:39:23;;;;;;;29.60;5.35;;;;;;;8.49;60.31;101482.84;4932527;28;124649;-70
2021/04/07 09:41:52;;;;;;;19.90;3.80;;;;;;;8.58;60.49;101487.88;4927232;28;119732;-70
2021/04/07 09:44:19;;;;;;;27.65;4.70;;;;;;;8.67;60.31;101498.19;4929451;28;119036;-70
2021/04/07 09:46:55;;;;;;;24.85;4.50;;;;;;;8.73;60.24;101529.72;4927041;28;124005;-71
2021/04/07 09:49:26;;;;;;;25.52;4.30;;;;;;;8.75;59.72;101542.91;4927762;28;123866;-71
2021/04/07 09:51:53;;;;;;;26.08;4.55;;;;;;;8.71;59.45;101563.22;4901624;28;118338;-71
2021/04/07 09:54:26;;;;;;;18.27;3.80;;;;;;;8.60;58.94;101552.06;4930017;28;119404;-70
2021/04/07 09:57:07;;;;;;;16.55;2.60;;;;;;;8.46;58.93;101551.56;4911672;28;122886;-70
2021/04/07 09:59:42;;;;;;;16.48;2.92;;;;;;;8.38;59.20;101554.34;4929408;28;124558;-71
2021/04/07 10:02:11;;;;;;;18.37;3.57;;;;;;;8.33;59.26;101549.19;4928356;28;119389;-70
2021/04/07 10:04:47;;;;;;;18.38;3.53;;;;;;;8.29;59.56;101539.63;4928598;28;117765;-70
2021/04/07 10:07:14;;;;;;;16.25;2.85;;;;;;;8.28;59.55;101553.69;4927050;28;123877;-70
2021/04/07 10:09:47;;;;;;;15.90;2.67;;;;;;;8.28;59.63;101553.69;4929105;28;123931;-70
2021/04/07 10:12:20;;;;;;;17.38;3.05;;;;;;;8.29;59.56;101566.00;4908330;28;119761;-70
2021/04/07 10:14:51;;;;;;;15.32;2.75;;;;;;;8.29;59.67;101566.00;4921083;28;117881;-71
2021/04/07 10:17:20;;;;;;;14.30;2.80;;;;;;;8.28;59.26;101558.97;4939460;28;125315;-71
2021/04/07 10:19:47;;;;;;;19.48;2.97;;;;;;;8.29;59.57;101558.09;4900885;28;123223;-71
2021/04/07 10:22:26;;;;;;;20.17;2.88;;;;;;;8.27;59.85;101551.97;4918337;28;118109;-71
2021/04/07 10:27:40;;;;;;;12.82;2.90;;;;;;;8.36;60.20;101557.03;4934526;28;124288;-71
2021/04/07 10:30:14;;;;;;;12.50;3.25;;;;;;;8.45;60.19;101557.75;4910422;28;124801;-71
2021/04/07 10:32:54;;;;;;;18.73;3.40;;;;;;;8.54;60.58;101554.88;4909840;28;119511;-70
2021/04/07 10:35:26;;;;;;;20.70;3.05;;;;;;;8.68;60.43;101559.78;4907529;28;119155;-71
2021/04/07 10:38:06;;;;;;;28.08;3.97;;;;;;;8.83;61.23;101563.81;4928253;28;124439;-71
2021/04/07 10:40:35;;;;;;;25.50;4.20;;;;;;;8.99;61.10;101556.38;4911241;28;123284;-71
2021/04/07 10:43:16;;;;;;;22.88;4.03;;;;;;;9.14;61.21;101575.31;4900467;28;119172;-71
2021/04/07 10:45:44;;;;;;;16.20;3.35;;;;;;;9.25;60.60;101590.88;4905342;28;119189;-72
2021/04/07 10:48:10;;;;;;;22.73;3.38;;;;;;;9.27;59.78;101598.78;4914603;28;123597;-72
2021/04/07 10:50:39;;;;;;;15.73;2.40;;;;;;;9.22;59.47;101598.03;4925312;28;123933;-72
2021/04/07 10:53:07;;;;;;;10.55;2.28;;;;;;;9.15;58.76;101584.97;4928377;28;119520;-74
2021/04/07 10:55:34;;;;;;;17.13;2.47;;;;;;;9.09;58.88;101606.25;4923092;28;119121;-74
2021/04/07 10:58:01;;;;;;;9.93;2.00;;;;;;;9.04;58.44;101618.75;4910789;28;123715;-74
2021/04/07 11:00:35;;;;;;;7.50;1.70;;;;;;;8.96;58.49;101584.56;4924646;28;123902;-73
2021/04/07 11:03:03;;;;;;;12.55;1.98;;;;;;;8.95;58.88;101592.56;4927924;28;120499;-72
2021/04/07 11:05:40;;;;;;;14.82;2.53;;;;;;;8.96;58.92;101594.28;4928094;28;120025;-72
2021/04/07 11:08:10;;;;;;;14.82;2.88;;;;;;;9.03;59.46;101606.44;4927420;28;124468;-73
2021/04/07 11:10:39;;;;;;;16.95;3.47;;;;;;;9.10;59.32;101602.72;4909963;28;123164;-72
2021/04/07 11:13:06;;;;;;;23.85;3.80;;;;;;;9.22;59.64;101616.53;4908585;28;119931;-73
2021/04/07 11:15:33;;;;;;;24.30;4.15;;;;;;;9.30;59.54;101619.81;4891392;28;118411;-73
2021/04/07 11:18:00;;;;;;;24.23;3.92;;;;;;;9.39;59.86;101621.34;4927616;28;123715;-73
2021/04/07 11:20:32;;;;;;;24.05;3.70;;;;;;;9.49;59.44;101626.34;4925632;28;123059;-73
2021/04/07 11:22:59;;;;;;;19.95;3.85;;;;;;;9.59;59.42;101620.78;4928091;28;119509;-73
2021/04/07 11:25:27;;;;;;;20.73;3.67;;;;;;;9.66;59.35;101630.28;4910882;28;119066;-73
2021/04/07 11:27:57;;;;;;;18.98;3.22;;;;;;;9.71;58.78;101633.66;4927268;28;124131;-73
2021/04/07 11:30:26;;;;;;;17.58;3.25;;;;;;;9.74;58.66;101629.16;4901611;28;123386;-75
2021/04/07 11:33:02;;;;;;;17.52;3.22;;;;;;;9.81;58.34;101643.06;4928602;28;119431;-75
2021/04/07 11:36:01;;;;;;;18.75;3.28;;;;;;;9.87;58.05;101642.00;4919632;28;119359;-73
2021/04/07 11:38:29;;;;;;;25.13;3.88;;;;;;;9.96;58.36;101630.28;4905620;28;123659;-74
2021/04/07 11:46:25;;;;;;;20.87;3.87;;;;;;;10.25;57.99;101638.22;4914515;28;118394;-72
2021/04/07 11:48:52;;;;;;;15.60;3.33;;;;;;;10.30;57.43;101643.38;4930347;28;124169;-75
2021/04/07 11:51:19;;;;;;;18.40;3.30;;;;;;;10.33;56.59;101630.06;4911394;28;122788;-75
2021/04/07 11:53:49;;;;;;;17.80;3.50;;;;;;;10.33;56.91;101641.53;4922741;28;119558;-75
2021/04/07 11:56:19;;;;;;;15.32;3.05;;;;;;;10.35;56.84;101643.28;4929578;28;119740;-74
2021/04/07 11:58:46;;;;;;;17.52;3.05;;;;;;;10.37;56.86;101652.03;4914824;28;124089;-73
2021/04/07 12:01:13;;;;;;;21.02;3.17;;;;;;;10.40;56.77;101662.53;4922069;28;124269;-74
2021/04/07 12:03:39;;;;;;;19.60;3.53;;;;;;;10.42;56.51;101650.13;4931244;28;119070;-74
2021/04/07 12:06:06;;;;;;;18.88;3.22;;;;;;;10.44;55.81;101666.81;4914180;28;118469;-74
2021/04/07 12:08:32;;;;;;;16.38;3.40;;;;;;;10.40;55.39;101673.13;4911820;28;123300;-73
2021/04/07 12:11:00;;;;;;;20.73;3.63;;;;;;;10.35;55.67;101675.03;4916532;28;124366;-73
2021/04/07 12:13:27;;;;;;;17.83;3.17;;;;;;;10.27;55.12;101699.94;4935672;28;119654;-74
2021/04/07 12:15:55;;;;;;;15.95;2.75;;;;;;;10.17;55.29;101693.19;4911357;28;118340;-74
2021/04/07 12:18:22;;;;;;;12.98;2.72;;;;;;;10.13;55.48;101683.59;4907137;28;123817;-75
2021/04/07 12:20:50;;;;;;;10.43;2.42;;;;;;;10.12;55.78;101684.50;4928240;28;123730;-75
2021/04/07 12:23:18;;;;;;;16.40;2.78;;;;;;;10.15;55.46;101702.94;4912776;28;118812;-74
2021/04/07 12:25:45;;;;;;;20.65;2.60;;;;;;;10.17;56.02;101687.91;4921604;28;119989;-72
2021/04/07 12:28:13;;;;;;;11.00;2.30;;;;;;;10.25;56.07;101691.19;4928640;28;124355;-72
2021/04/07 12:30:49;;;;;;;13.13;2.75;;;;;;;10.33;56.39;101689.19;4912949;28;123544;-72
2021/04/07 12:33:21;;;;;;;10.50;2.30;;;;;;;10.45;55.81;101697.66;4927888;28;119344;-72
2021/04/07 12:35:49;;;;;;;12.10;2.25;;;;;;;10.52;55.66;101694.78;4897321;28;118447;-73
2021/04/07 12:38:16;;;;;;;10.88;2.40;;;;;;;10.57;55.21;101692.00;4929680;28;124931;-73
2021/04/07 12:40:48;;;;;;;10.73;2.53;;;;;;;10.60;54.96;101705.13;4912463;28;123800;-74
2021/04/07 12:43:15;;;;;;;12.27;2.65;;;;;;;10.62;54.25;101699.78;4924760;28;119997;-73
2021/04/07 12:45:42;;;;;;;12.73;2.35;;;;;;;10.62;54.05;101703.31;4912255;28;119157;-73
2021/04/07 12:48:09;;;;;;;12.35;2.35;;;;;;;10.63;53.30;101707.69;4927482;28;124751;-73
2021/04/07 12:50:37;;;;;;;11.73;2.03;;;;;;;10.63;53.51;101702.41;4908678;28;122909;-72
2021/04/07 12:53:05;;;;;;;15.35;2.40;;;;;;;10.64;53.26;101704.16;4927364;28;119534;-72
2021/04/07 12:55:32;;;;;;;9.60;2.33;;;;;;;10.71;52.66;101710.97;4926953;28;119898;-72
2021/04/07 12:57:59;;;;;;;9.70;1.98;;;;;;;10.74;52.51;101717.06;4894293;28;124080;-73
2021/04/07 13:00:28;;;;;;;10.18;2.00;;;;;;;10.76;52.18;101733.81;4910860;28;123979;-73
2021/04/07 13:02:55;;;;;;;14.68;2.42;;;;;;;10.75;51.77;101729.41;4914195;28;121527;-73
2021/04/07 13:05:21;;;;;;;12.40;2.38;;;;;;;10.70;52.03;101722.50;4929635;28;119670;-72
2021/04/07 13:07:48;;;;;;;10.63;2.42;;;;;;;10.68;51.71;101736.69;4923686;28;123827;-73
2021/04/07 13:10:22;;;;;;;10.43;2.40;;;;;;;10.64;52.20;101757.13;4931570;28;124734;-73
2021/04/07 13:12:49;;;;;;;8.25;2.10;;;;;;;10.54;52.23;101776.84;4929908;28;119420;-73
2021/04/07 13:15:16;;;;;;;10.05;1.83;;;;;;;10.30;52.02;101800.50;4931432;28;119087;-72
2021/04/07 13:17:43;;;;;;;8.48;1.83;;;;;;;9.97;51.91;101785.53;4911523;28;123351;-73
2021/04/07 13:20:15;;;;;;;10.70;2.30;;;;;;;9.63;52.21;101784.63;4928974;28;124081;-72
2021/04/07 13:22:42;;;;;;;12.07;2.08;;;;;;;9.33;52.57;101789.78;4932139;28;119644;-73
2021/04/07 13:25:09;;;;;;;8.50;2.05;;;;;;;9.11;53.46;101793.84;4915485;28;116835;-72
2021/04/07 13:27:36;;;;;;;9.70;2.10;;;;;;;8.92;53.63;101772.28;4929502;28;124234;-72
2021/04/07 13:30:05;;;;;;;10.70;2.30;;;;;;;8.80;54.64;101777.84;4923913;28;124275;-72
2021/04/07 13:32:39;;;;;;;12.38;2.15;;;;;;;8.71;54.79;101779.78;4926984;28;120320;-71
2021/04/07 13:35:10;;;;;;;9.52;2.03;;;;;;;8.71;55.29;101785.06;4923157;28;121049;-72
2021/04/07 13:40:56;;;;;;;12.65;2.05;;;;;;;8.81;56.21;101784.88;4888757;28;123128;-72
2021/04/07 13:43:23;;;;;;;10.75;2.17;;;;;;;8.90;57.11;101779.38;4926781;28;119496;-73
2021/04/07 13:45:49;;;;;;;13.10;2.42;;;;;;;9.02;57.23;101779.06;4925302;28;118717;-73
2021/04/07 13:48:26;;;;;;;11.18;3.00;;;;;;;9.14;56.97;101794.66;4928342;28;123583;-73
2021/04/07 13:50:53;;;;;;;12.30;2.10;;;;;;;9.28;56.58;101801.38;4928389;28;124310;-72
2021/04/07 13:53:24;;;;;;;12.30;2.30;;;;;;;9.34;56.05;101806.50;4927053;28;119505;-72
2021/04/07 13:55:55;;;;;;;13.07;2.35;;;;;;;9.38;56.02;101802.03;4911213;28;118196;-72
2021/04/07 13:58:22;;;;;;;12.70;2.58;;;;;;;9.43;55.68;101806.28;4924301;28;124768;-72
2021/04/07 14:00:49;;;;;;;13.82;2.50;;;;;;;9.47;55.11;101807.94;4906793;28;124240;-73
2021/04/07 14:03:16;;;;;;;9.57;2.35;;;;;;;9.53;55.27;101802.53;4927671;28;119068;-71
2021/04/07 14:05:43;;;;;;;13.88;2.47;;;;;;;9.65;55.03;101789.91;4927104;28;119046;-71
2021/04/07 14:08:11;;;;;;;12.25;2.58;;;;;;;9.72;54.86;101807.34;4925740;28;124353;-71
2021/04/07 14:10:42;;;;;;;16.63;2.40;;;;;;;9.81;54.12;101807.09;4907411;28;124356;-72
2021/04/07 14:13:10;;;;;;;11.02;2.35;;;;;;;9.81;53.44;101793.84;4924871;28;119481;-72
2021/04/07 14:15:38;;;;;;;13.85;2.50;;;;;;;9.81;54.04;101801.78;4910994;28;119185;-72
2021/04/07 14:18:06;;;;;;;10.95;2.28;;;;;;;9.83;53.59;101799.13;4909931;28;123645;-73
2021/04/07 14:20:33;;;;;;;11.68;2.28;;;;;;;9.83;53.17;101802.66;4928720;28;123980;-71
2021/04/07 14:23:00;;;;;;;15.00;2.80;;;;;;;9.84;53.41;101799.06;4928024;28;121004;-72
2021/04/07 14:25:29;;;;;;;15.43;2.47;;;;;;;9.87;53.27;101791.06;4911499;28;119595;-73
2021/04/07 14:28:00;;;;;;;17.88;2.70;;;;;;;9.91;53.15;101802.44;4910346;28;124486;-73
2021/04/07 14:30:43;;;;;;;12.98;2.35;;;;;;;9.93;52.54;101812.06;4911057;28;123866;-73
2021/04/07 14:33:15;;;;;;;16.88;2.78;;;;;;;9.97;52.36;101806.69;4926506;28;118742;-72
2021/04/07 14:35:44;;;;;;;10.38;2.40;;;;;;;9.97;52.23;101806.69;4895269;28;118465;-71
2021/04/07 14:38:12;;;;;;;11.95;2.38;;;;;;;9.97;52.10;101807.56;4923594;28;123739;-72
2021/04/07 14:40:39;;;;;;;15.77;2.72;;;;;;;9.98;51.97;101816.34;4929657;28;124020;-72
2021/04/07 14:43:05;;;;;;;11.48;2.50;;;;;;;10.00;51.77;101817.19;4929336;28;119654;-72
2021/04/07 14:45:32;;;;;;;14.30;2.42;;;;;;;10.00;51.60;101822.47;4929420;28;119898;-72
2021/04/07 14:47:59;;;;;;;12.23;2.15;;;;;;;10.02;51.68;101815.34;4893933;28;123973;-72
2021/04/07 14:50:32;;;;;;;10.60;2.33;;;;;;;10.04;51.62;101813.53;4927208;28;124079;-73
2021/04/07 14:52:59;;;;;;;13.48;2.35;;;;;;;10.07;51.32;101813.47;4904069;28;119934;-73
2021/04/07 14:55:25;;;;;;;7.53;2.00;;;;;;;10.13;50.89;101798.28;4925866;28;119625;-73
2021/04/07 14:57:52;;;;;;;12.80;2.55;;;;;;;10.22;50.58;101813.03;4927375;28;124186;-72
2021/04/07 15:00:19;;;;;;;9.63;2.00;;;;;;;10.32;50.54;101809.28;4909251;28;123744;-72
2021/04/07 15:02:47;;;;;;;11.05;2.15;;;;;;;10.38;50.12;101823.22;4928069;28;119131;-71
2021/04/07 15:05:16;;;;;;;10.52;2.45;;;;;;;10.41;49.62;101823.16;4927914;28;118738;-72
2021/04/07 15:07:45;;;;;;;13.52;2.40;;;;;;;10.41;49.59;101823.16;4927169;28;124065;-71
2021/04/07 15:10:14;;;;;;;12.90;2.10;;;;;;;10.41;48.93;101833.75;4927060;28;124721;-72
2021/04/07 15:12:46;;;;;;;10.57;2.42;;;;;;;10.35;49.11;101844.50;4927406;28;120362;-71
2021/04/07 15:15:13;;;;;;;11.10;2.30;;;;;;;10.27;49.40;101858.78;4919909;28;120237;-72
2021/04/07 15:17:41;;;;;;;12.45;1.95;;;;;;;10.16;49.10;101849.41;4911593;28;122848;-72
2021/04/07 15:20:09;;;;;;;8.65;1.88;;;;;;;10.00;48.45;101855.13;4911204;28;123445;-72
2021/04/07 15:22:36;;;;;;;6.47;1.58;;;;;;;9.87;48.52;101858.97;4913762;28;118092;-71
2021/04/07 15:25:11;;;;;;;5.30;1.42;;;;;;;9.80;48.02;101863.56;4897810;28;117820;-72
2021/04/07 15:30:24;;;;;;;4.87;1.47;;;;;;;9.79;48.67;101856.53;4919975;28;124687;-72
2021/04/07 15:32:52;;;;;;;6.90;1.63;;;;;;;9.85;48.53;101861.69;4913394;28;118803;-72
2021/04/07 15:35:21;;;;;;;8.50;1.80;;;;;;;9.94;48.39;101872.03;4913545;28;118698;-72
2021/04/07 15:37:50;;;;;;;8.07;1.63;;;;;;;9.99;48.21;101865.75;4930371;28;122948;-73
2021/04/07 15:40:16;;;;;;;7.35;1.98;;;;;;;10.00;48.32;101880.69;4899552;28;124311;-72
2021/04/07 15:42:43;;;;;;;10.73;2.13;;;;;;;9.98;48.27;101903.69;4913187;28;118289;-73
2021/04/07 15:45:10;;;;;;;7.95;1.88;;;;;;;9.84;48.54;101912.84;4913463;28;118116;-73
2021/04/07 15:47:36;;;;;;;10.90;2.00;;;;;;;9.60;48.91;101924.03;4930875;28;123790;-72
2021/04/07 15:50:05;;;;;;;11.20;1.92;;;;;;;9.32;48.97;101903.50;4908382;28;588328;-73
2021/04/07 15:52:32;;;;;;;8.38;1.90;;;;;;;9.07;49.62;101906.69;4913104;28;119117;-72
2021/04/07 15:54:58;;;;;;;9.27;2.10;;;;;;;8.91;49.98;101900.88;4912960;28;118453;-72
2021/04/07 15:57:28;;;;;;;10.80;1.90;;;;;;;8.80;50.79;101891.41;4913955;28;122504;-73
2021/04/07 16:00:00;;;;;;;10.57;2.00;;;;;;;8.68;50.91;101909.28;4930184;28;124636;-72
2021/04/07 16:02:27;;;;;;;11.10;1.80;;;;;;;8.57;51.28;101904.19;4931718;28;121056;-72
2021/04/07 16:04:55;;;;;;;12.02;2.05;;;;;;;8.51;51.32;101908.72;4914401;28;120174;-72
2021/04/07 16:07:21;;;;;;;8.48;2.00;;;;;;;8.44;51.58;101920.28;4914096;28;123513;-72
2021/04/07 16:09:48;;;;;;;9.93;1.70;;;;;;;8.37;52.02;101916.88;4913545;28;124541;-72
2021/04/07 16:12:15;;;;;;;9.88;1.90;;;;;;;8.27;51.99;101932.03;4940095;28;119401;-72
2021/04/07 16:14:41;;;;;;;10.85;2.30;;;;;;;8.19;52.52;101928.63;4913630;28;119238;-72
2021/04/07 16:17:08;;;;;;;11.25;2.00;;;;;;;8.12;52.30;101924.38;4931138;28;124382;-71
2021/04/07 16:19:37;;;;;;;12.43;2.10;;;;;;;8.08;52.71;101930.56;4928368;28;123994;-71
2021/04/07 16:22:06;;;;;;;10.43;1.50;;;;;;;8.03;52.92;101927.16;4930976;28;119030;-72
2021/04/07 16:24:33;;;;;;;9.80;1.83;;;;;;;8.01;52.84;101929.81;4929529;28;118077;-71
2021/04/07 16:27:00;;;;;;;8.27;1.60;;;;;;;7.98;53.05;101924.59;4930871;28;124845;-72
2021/04/07 16:29:29;;;;;;;7.22;1.83;;;;;;;7.97;53.19;101934.28;4930519;28;124516;-71
2021/04/07 16:31:56;;;;;;;8.55;1.65;;;;;;;7.99;53.34;101943.03;4898335;28;117450;-72
2021/04/07 16:34:22;;;;;;;10.15;1.80;;;;;;;8.02;53.24;101936.81;4931967;28;118243;-72
2021/04/07 16:36:49;;;;;;;13.88;2.60;;;;;;;8.06;53.63;101929.72;4931913;28;124067;-72
2021/04/07 16:39:16;;;;;;;6.07;1.98;;;;;;;8.07;53.31;101935.00;4896923;28;122847;-72
2021/04/07 16:41:42;;;;;;;9.50;2.15;;;;;;;8.08;53.14;101930.56;4931606;28;119269;-72
2021/04/07 16:44:09;;;;;;;9.05;1.90;;;;;;;8.06;53.25;101932.38;4929540;28;118538;-72
2021/04/07 16:46:36;;;;;;;10.02;1.65;;;;;;;8.04;52.96;101939.44;4912532;28;123077;-72
2021/04/07 16:49:04;;;;;;;8.32;1.90;;;;;;;8.01;52.85;101944.78;4929941;28;124100;-72
2021/04/07 16:51:31;;;;;;;9.88;2.00;;;;;;;7.96;52.95;101943.06;4912569;28;120310;-72
2021/04/07 16:53:58;;;;;;;14.27;2.45;;;;;;;7.94;53.18;101960.69;4930450;28;120634;-72
2021/04/07 16:56:24;;;;;;;13.50;2.08;;;;;;;7.89;53.38;101956.38;4912757;28;122993;-71
2021/04/07 16:58:51;;;;;;;8.63;2.10;;;;;;;7.82;53.30;101955.63;4929588;28;124697;-71
2021/04/07 17:01:18;;;;;;;11.32;2.33;;;;;;;7.79;53.74;101955.69;4933603;28;119292;-71
2021/04/07 17:03:46;;;;;;;6.70;1.30;;;;;;;7.77;53.42;101952.19;4930141;28;119118;-71
2021/04/07 17:06:13;;;;;;;5.65;1.33;;;;;;;7.74;53.77;101952.22;4915131;28;123073;-71
2021/04/07 17:08:45;;;;;;;7.07;1.40;;;;;;;7.74;54.00;101957.50;4928921;28;124102;-72
2021/04/07 17:11:13;;;;;;;4.13;1.15;;;;;;;7.74;53.48;101952.22;4914362;28;118911;-71
2021/04/07 17:13:40;;;;;;;5.53;1.60;;;;;;;7.74;53.77;101953.13;4913115;28;118978;-71
2021/04/07 17:16:06;;;;;;;5.35;1.25;;;;;;;7.75;53.51;101961.91;4928008;28;124460;-71
2021/04/07 17:18:33;;;;;;;6.13;1.15;;;;;;;7.76;53.31;101966.25;4911541;28;123706;-71
2021/04/07 17:21:00;;;;;;;8.98;1.77;;;;;;;7.78;53.18;101969.78;4927565;28;119583;-71
2021/04/07 17:23:26;;;;;;;8.15;1.30;;;;;;;7.76;53.10;101976.81;4930059;28;118826;-71
2021/04/07 17:25:53;;;;;;;7.15;1.40;;;;;;;7.73;52.91;101976.88;4913090;28;123220;-70
2021/04/07 17:28:21;;;;;;;9.82;1.60;;;;;;;7.69;52.66;101981.31;4931214;28;123472;-72
2021/04/07 17:30:47;;;;;;;6.47;1.60;;;;;;;7.66;52.42;101975.22;4915999;28;118928;-71
2021/04/07 17:33:15;;;;;;;8.57;1.50;;;;;;;7.62;52.79;101979.66;4932880;28;119056;-71
2021/04/07 17:35:43;;;;;;;6.25;1.20;;;;;;;7.60;52.64;101987.59;4912871;28;122945;-72
2021/04/07 17:38:26;;;;;;;4.72;1.40;;;;;;;7.57;52.50;101977.09;4928432;28;125025;-71
2021/04/07 17:40:54;;;;;;;5.55;1.38;;;;;;;7.57;52.79;101992.91;4928127;28;120264;-72
2021/04/07 17:43:22;;;;;;;10.93;2.10;;;;;;;7.54;52.62;101987.69;4926674;28;120069;-72
2021/04/07 17:45:49;;;;;;;8.93;1.70;;;;;;;7.53;53.06;102007.00;4912672;28;123669;-72
2021/04/07 17:48:16;;;;;;;8.32;1.95;;;;;;;7.51;52.85;102000.88;4927250;28;123905;-72
2021/04/07 17:50:43;;;;;;;6.50;1.50;;;;;;;7.48;52.89;102003.59;4922160;28;118138;-72
2021/04/07 17:53:11;;;;;;;4.25;1.17;;;;;;;7.44;52.71;101998.34;4929344;28;119266;-73
2021/04/07 17:55:38;;;;;;;5.50;1.30;;;;;;;7.38;53.03;102001.94;4929003;28;125032;-72
2021/04/07 17:58:10;;;;;;;4.93;1.73;;;;;;;7.34;53.08;101994.97;4921491;28;123494;-71
2021/04/07 18:00:38;;;;;;;7.95;1.60;;;;;;;7.28;53.04;102000.34;4910324;28;118571;-71
2021/04/07 18:03:05;;;;;;;4.50;1.45;;;;;;;7.23;53.73;101997.75;4928407;28;119157;-71
2021/04/07 18:05:32;;;;;;;8.02;1.30;;;;;;;7.17;53.28;102003.97;4913575;28;124041;-72
2021/04/07 18:07:59;;;;;;;5.80;1.48;;;;;;;7.12;53.46;102000.53;4929099;28;123614;-71
2021/04/07 18:10:25;;;;;;;7.88;1.55;;;;;;;7.07;53.60;102007.59;4911370;28;119302;-71
2021/04/07 18:12:52;;;;;;;4.75;1.40;;;;;;;7.02;53.45;102004.16;4912602;28;118514;-71
2021/04/07 18:15:19;;;;;;;7.20;1.58;;;;;;;6.98;53.47;102008.56;4911537;28;124760;-71
2021/04/07 18:17:55;;;;;;;6.15;1.88;;;;;;;6.94;53.74;102021.81;4928005;28;124052;-72
2021/04/07 18:20:24;;;;;;;7.07;1.70;;;;;;;6.89;53.76;102029.75;4929703;28;119602;-71
2021/04/07 18:22:52;;;;;;;5.93;1.70;;;;;;;6.85;53.68;102027.16;4907211;28;118433;-72
2021/04/07 18:25:20;;;;;;;7.28;1.38;;;;;;;6.80;53.80;102025.47;4910226;28;123740;-71
2021/04/07 18:27:48;;;;;;;6.00;1.60;;;;;;;6.76;54.16;102018.50;4927281;28;123779;-71
2021/04/07 18:30:16;;;;;;;6.43;1.65;;;;;;;6.73;54.17;102022.91;4926768;28;120299;-71
2021/04/07 18:32:43;;;;;;;5.05;1.10;;;;;;;6.70;54.16;102023.78;4927268;28;120151;-71
2021/04/07 18:35:10;;;;;;;6.18;1.80;;;;;;;6.69;54.17;102037.00;4923668;28;124022;-70
2021/04/07 18:37:37;;;;;;;5.70;1.38;;;;;;;6.68;54.20;102030.84;4927938;28;124770;-70
2021/04/07 18:40:05;;;;;;;8.35;1.77;;;;;;;6.66;54.56;102037.88;4926444;28;120244;-70
2021/04/07 18:42:31;;;;;;;6.07;1.73;;;;;;;6.65;54.35;102036.16;4894870;28;118004;-70
2021/04/07 18:44:58;;;;;;;6.25;1.58;;;;;;;6.63;54.57;102038.78;4927201;28;124021;-70
2021/04/07 18:47:25;;;;;;;5.82;1.50;;;;;;;6.63;54.39;102048.47;4911072;28;124039;-70
2021/04/07 18:49:54;;;;;;;5.75;1.60;;;;;;;6.62;54.35;102041.44;4927340;28;119669;-70
2021/04/07 18:52:22;;;;;;;7.32;2.83;;;;;;;6.60;54.46;102046.72;4923513;28;118724;-69
2021/04/07 18:54:50;;;;;;;11.18;1.75;;;;;;;6.58;54.58;102043.22;4926503;28;125081;-70
2021/04/07 18:57:17;;;;;;;4.95;1.67;;;;;;;6.58;54.89;102052.88;4927069;28;123880;-70
2021/04/07 18:59:44;;;;;;;7.10;1.80;;;;;;;6.59;54.90;102057.25;4926708;28;118470;-70
2021/04/07 19:02:11;;;;;;;8.20;1.92;;;;;;;6.59;54.84;102057.25;4930371;28;118967;-70
2021/04/07 19:04:38;;;;;;;7.75;1.90;;;;;;;6.60;55.09;102059.00;4910866;28;124850;-70
2021/04/07 19:07:05;;;;;;;8.73;1.80;;;;;;;6.61;55.09;102050.19;4911858;28;122759;-69
2021/04/07 19:09:32;;;;;;;10.38;2.03;;;;;;;6.60;54.78;102059.00;4910298;28;119677;-70
2021/04/07 19:12:00;;;;;;;10.40;1.88;;;;;;;6.60;54.97;102059.00;4910549;28;117975;-70
2021/04/07 19:14:26;;;;;;;8.25;1.58;;;;;;;6.61;55.00;102053.72;4894251;28;123333;-70
2021/04/07 19:16:53;;;;;;;7.90;1.65;;;;;;;6.62;55.11;102051.97;4928160;28;124106;-70
2021/04/07 19:19:20;;;;;;;9.80;1.77;;;;;;;6.62;54.95;102062.50;4908221;28;118987;-70
2021/04/07 19:21:47;;;;;;;7.00;1.80;;;;;;;6.63;55.06;102059.00;4909332;28;118782;-70
2021/04/07 19:24:19;;;;;;;8.18;1.60;;;;;;;6.63;55.29;102059.00;4924865;28;124725;-70
2021/04/07 19:26:45;;;;;;;9.48;1.83;;;;;;;6.63;55.05;102065.13;4910140;28;124496;-70
2021/04/07 19:29:12;;;;;;;7.95;2.00;;;;;;;6.63;55.19;102064.25;4893518;28;118662;-70